Time;durP1;ratioP1;P1;durP2;ratioP2;P2;SDS_P1;SDS_P2;PMS_P1;PMS_P2;Temp;Humidity;BMP_temperature;BMP_pressure;BME280_temperature;BME280_humidity;BME280_pressure;Samples;Min_cycle;Max_cycle;Signal;HPM_P1;HPM_P2
2022/07/21 00:00:54;;;;;;;17.83;16.33;;;24.50;61.30;;;;;;21036;6724;118717;-87
2022/07/21 00:03:29;;;;;;;17.70;16.30;;;24.30;62.10;;;;;;21011;6724;119734;-87
2022/07/21 00:06:05;;;;;;;16.57;15.27;;;24.00;62.50;;;;;;20979;6724;117129;-88
2022/07/21 00:08:41;;;;;;;19.30;17.90;;;23.80;63.70;;;;;;20732;6724;276393;-86
2022/07/21 00:11:16;;;;;;;18.17;16.92;;;24.10;63.60;;;;;;20797;6724;308052;-87
2022/07/21 00:13:53;;;;;;;17.50;16.00;;;24.50;62.40;;;;;;20978;6724;117999;-88
2022/07/21 00:16:29;;;;;;;21.67;16.83;;;24.50;62.80;;;;;;20934;6724;149326;-87
2022/07/21 00:19:04;;;;;;;17.10;15.80;;;24.20;63.30;;;;;;20965;6724;117600;-88
2022/07/21 00:21:40;;;;;;;17.50;15.70;;;24.00;63.90;;;;;;20966;6724;118540;-86
2022/07/21 00:24:15;;;;;;;18.50;16.63;;;23.90;64.50;;;;;;20759;6724;306215;-88
2022/07/21 00:26:51;;;;;;;20.73;18.83;;;24.20;64.00;;;;;;20734;6724;279621;-87
2022/07/21 00:29:26;;;;;;;19.83;18.48;;;24.50;62.40;;;;;;20719;6724;336212;-86
2022/07/21 00:32:04;;;;;;;19.10;17.60;;;24.90;61.70;;;;;;20826;6724;118559;-90
2022/07/21 00:34:38;;;;;;;21.23;19.60;;;24.70;62.00;;;;;;20596;6724;276701;-86
2022/07/21 00:37:13;;;;;;;18.57;17.20;;;24.80;61.10;;;;;;20954;6724;117785;-87
2022/07/21 00:39:52;;;;;;;19.70;18.40;;;24.70;61.60;;;;;;20736;6724;307826;-88
2022/07/21 00:42:28;;;;;;;19.20;17.57;;;24.80;61.60;;;;;;20941;6724;118393;-87
2022/07/21 00:45:03;;;;;;;20.70;19.20;;;24.70;62.30;;;;;;20629;6724;310085;-86
2022/07/21 00:47:39;;;;;;;19.10;17.80;;;24.80;62.00;;;;;;20718;6739;277181;-87
2022/07/21 00:50:14;;;;;;;18.63;17.23;;;25.10;61.40;;;;;;20942;6739;117290;-87
2022/07/21 00:52:50;;;;;;;18.03;16.63;;;25.00;61.90;;;;;;20923;6739;121635;-88
2022/07/21 00:55:26;;;;;;;16.87;15.60;;;24.40;63.00;;;;;;20678;6810;115739;-89
2022/07/21 00:58:02;;;;;;;19.57;18.17;;;24.40;63.00;;;;;;20746;6754;303140;-87
2022/07/21 01:00:37;;;;;;;19.80;18.30;;;24.60;61.80;;;;;;20572;6754;299154;-87
2022/07/21 01:03:13;;;;;;;17.77;16.47;;;24.90;61.20;;;;;;20865;6754;117607;-87
2022/07/21 01:05:51;;;;;;;18.73;17.43;;;24.80;60.80;;;;;;20680;6745;280566;-87
2022/07/21 01:08:27;;;;;;;18.17;16.83;;;24.80;60.80;;;;;;20758;6737;278101;-88
2022/07/21 01:11:02;;;;;;;19.20;17.80;;;25.00;60.30;;;;;;20555;6767;278587;-89
2022/07/21 01:13:41;;;;;;;19.93;18.37;;;25.10;59.90;;;;;;20596;6755;279903;-86
2022/07/21 01:16:14;;;;;;;18.35;17.08;;;25.30;59.80;;;;;;20689;6755;336189;-88
2022/07/21 01:18:49;;;;;;;17.03;15.73;;;25.30;59.30;;;;;;20864;6735;117094;-86
2022/07/21 01:21:28;;;;;;;16.53;15.23;;;25.00;60.40;;;;;;20761;6740;117594;-88
2022/07/21 01:24:04;;;;;;;17.12;15.85;;;24.50;61.40;;;;;;20568;6752;322203;-87
2022/07/21 01:26:43;;;;;;;15.73;14.63;;;24.60;60.90;;;;;;20867;6740;121276;-88
2022/07/21 01:29:20;;;;;;;14.47;13.50;;;24.50;61.50;;;;;;20839;6755;118023;-87
2022/07/21 01:31:56;;;;;;;17.20;16.00;;;24.30;62.80;;;;;;20644;6755;295163;-87
2022/07/21 01:34:32;;;;;;;15.80;14.47;;;24.40;60.90;;;;;;20766;6740;117725;-86
2022/07/21 01:37:08;;;;;;;17.93;16.53;;;24.30;61.40;;;;;;20649;6755;306298;-90
2022/07/21 01:42:43;;;;;;;17.17;15.73;;;24.80;60.50;;;;;;20768;6502;305838;31
2022/07/21 01:45:09;;;;;;;16.63;15.13;;;25.00;60.00;;;;;;20909;6794;118546;31
2022/07/21 01:47:35;;;;;;;15.63;14.60;;;24.70;60.50;;;;;;20678;6794;310400;31
2022/07/21 01:50:00;;;;;;;15.63;14.43;;;24.70;60.60;;;;;;20666;6794;277476;31
2022/07/21 01:52:26;;;;;;;14.82;13.80;;;24.80;60.00;;;;;;20486;6853;279789;31
2022/07/21 01:54:51;;;;;;;15.13;14.07;;;25.00;59.40;;;;;;20488;6850;308974;31
2022/07/21 01:57:17;;;;;;;15.25;13.93;;;25.00;59.20;;;;;;20527;6850;309392;31
2022/07/21 01:59:42;;;;;;;14.57;13.38;;;25.10;59.50;;;;;;20511;6850;309982;31
2022/07/21 02:02:08;;;;;;;14.27;12.53;;;25.10;59.30;;;;;;20697;6856;117910;31
2022/07/21 02:04:34;;;;;;;14.20;12.90;;;24.80;60.10;;;;;;20656;6851;120501;31
2022/07/21 02:06:59;;;;;;;13.40;12.33;;;24.30;61.10;;;;;;20716;6851;118137;31
2022/07/21 02:09:24;;;;;;;12.53;11.63;;;24.00;62.00;;;;;;20664;6865;117976;31
2022/07/21 02:11:50;;;;;;;13.90;13.00;;;23.80;63.00;;;;;;20500;6853;309294;31
2022/07/21 02:14:16;;;;;;;12.67;11.67;;;23.90;62.80;;;;;;20636;6865;117507;31
2022/07/21 02:16:41;;;;;;;14.53;13.43;;;23.90;62.80;;;;;;20435;6871;282006;31
2022/07/21 02:19:07;;;;;;;13.13;12.15;;;24.10;62.00;;;;;;20468;6871;299836;31
2022/07/21 02:21:32;;;;;;;13.87;12.77;;;24.40;60.90;;;;;;20423;6871;289306;31
2022/07/21 02:23:58;;;;;;;13.00;12.00;;;24.60;60.50;;;;;;20381;6892;311442;31
2022/07/21 02:26:23;;;;;;;13.15;12.25;;;24.70;60.00;;;;;;20489;6858;298134;31
2022/07/21 02:28:49;;;;;;;12.80;11.80;;;24.80;59.30;;;;;;20485;6858;286189;31
2022/07/21 02:31:15;;;;;;;12.37;11.57;;;24.90;59.20;;;;;;20497;6858;279006;31
2022/07/21 02:33:40;;;;;;;12.95;12.00;;;25.00;59.00;;;;;;20491;6858;309280;31
2022/07/21 02:36:06;;;;;;;10.80;10.15;;;25.00;58.90;;;;;;20720;6858;120686;31
2022/07/21 02:38:32;;;;;;;13.03;12.13;;;24.70;59.80;;;;;;20473;6858;309264;31
2022/07/21 02:40:57;;;;;;;12.77;11.43;;;24.60;59.80;;;;;;20689;6858;118874;31
2022/07/21 02:43:23;;;;;;;11.93;11.23;;;24.40;60.60;;;;;;20439;6873;309272;31
2022/07/21 02:45:48;;;;;;;12.67;11.77;;;24.50;60.40;;;;;;20468;6868;297536;31
2022/07/21 02:48:15;;;;;;;11.10;10.33;;;24.60;59.70;;;;;;20746;6852;118190;31
2022/07/21 02:50:41;;;;;;;11.13;10.13;;;24.40;60.40;;;;;;20647;6852;118893;31
2022/07/21 02:53:06;;;;;;;11.40;10.60;;;24.10;61.40;;;;;;20657;6865;118522;31
2022/07/21 02:55:32;;;;;;;13.32;12.43;;;23.80;62.20;;;;;;20481;6858;309579;31
2022/07/21 02:58:17;;;;;;;11.37;10.67;;;24.00;62.00;;;;;;20689;6858;117277;31
2022/07/21 03:00:43;;;;;;;12.07;10.93;;;24.00;62.20;;;;;;20682;6856;117499;31
2022/07/21 03:03:08;;;;;;;11.52;10.82;;;23.80;62.80;;;;;;20688;6856;117149;31
2022/07/21 03:05:34;;;;;;;11.10;10.33;;;23.60;63.40;;;;;;20705;6856;117731;31
2022/07/21 03:07:59;;;;;;;12.80;11.33;;;23.50;63.70;;;;;;20680;6864;117349;31
2022/07/21 03:10:25;;;;;;;10.93;10.03;;;23.40;64.00;;;;;;20655;6876;116809;31
2022/07/21 03:12:50;;;;;;;11.80;10.93;;;23.30;64.30;;;;;;20470;6846;308480;31
2022/07/21 03:15:16;;;;;;;11.63;10.73;;;23.60;63.70;;;;;;20488;6861;278218;31
2022/07/21 03:17:42;;;;;;;11.13;10.33;;;24.00;61.80;;;;;;20662;6876;120905;31
2022/07/21 03:20:09;;;;;;;10.50;9.70;;;24.10;61.90;;;;;;20650;6876;119345;31
2022/07/21 03:22:34;;;;;;;11.20;10.50;;;23.90;62.40;;;;;;20400;6876;308909;31
2022/07/21 03:25:00;;;;;;;11.35;10.55;;;24.00;60.60;;;;;;20481;6861;308309;31
2022/07/21 03:27:25;;;;;;;10.50;9.70;;;24.40;59.80;;;;;;20705;6861;117538;31
2022/07/21 03:29:51;;;;;;;10.43;9.63;;;24.30;60.30;;;;;;20734;6861;116719;31
2022/07/21 03:32:17;;;;;;;11.23;10.33;;;24.10;61.80;;;;;;20466;6867;294293;31
2022/07/21 03:34:45;;;;;;;10.77;10.07;;;24.20;60.90;;;;;;20505;6848;308733;31
2022/07/21 03:37:08;;;;;;;10.53;9.53;;;24.50;60.30;;;;;;20692;6863;117566;31
2022/07/21 03:39:34;;;;;;;10.17;9.47;;;24.40;60.60;;;;;;20703;6863;117066;31
2022/07/21 03:42:00;;;;;;;11.05;10.35;;;24.20;61.30;;;;;;20468;6863;307362;31
2022/07/21 03:44:25;;;;;;;11.73;10.70;;;24.30;60.80;;;;;;20459;6863;309194;31
2022/07/21 03:46:51;;;;;;;11.23;10.40;;;24.60;59.80;;;;;;20665;6868;122535;31
2022/07/21 03:49:16;;;;;;;10.33;9.57;;;24.40;60.30;;;;;;20707;6856;120038;31
2022/07/21 03:51:42;;;;;;;10.13;9.57;;;24.10;61.10;;;;;;20754;6841;117136;31
2022/07/21 03:54:07;;;;;;;8.30;7.80;;;23.90;61.80;;;;;;20798;6845;117191;31
2022/07/21 03:56:33;;;;;;;7.37;6.87;;;23.70;62.60;;;;;;20811;6843;119647;31
2022/07/21 03:58:59;;;;;;;7.77;7.27;;;23.70;63.80;;;;;;20542;6845;310481;31
2022/07/21 04:01:24;;;;;;;8.05;7.50;;;24.20;61.80;;;;;;20698;6861;119162;31
2022/07/21 04:03:50;;;;;;;7.57;7.18;;;24.50;61.50;;;;;;20719;6849;121976;31
2022/07/21 04:06:15;;;;;;;8.52;7.93;;;24.60;61.30;;;;;;20498;6860;280138;31
2022/07/21 04:08:41;;;;;;;8.30;7.80;;;25.10;59.00;;;;;;20695;6854;117276;31
2022/07/21 04:11:06;;;;;;;9.40;8.70;;;25.20;58.80;;;;;;20492;6854;310244;31
2022/07/21 04:13:32;;;;;;;9.25;8.52;;;25.50;57.50;;;;;;20694;6867;117095;31
2022/07/21 04:15:58;;;;;;;8.27;7.67;;;25.50;57.90;;;;;;20690;6867;117570;31
2022/07/21 04:18:23;;;;;;;8.00;7.50;;;25.30;58.50;;;;;;20691;6867;117170;31
2022/07/21 04:20:49;;;;;;;8.60;8.00;;;25.20;59.00;;;;;;20648;6869;117216;31
2022/07/21 04:23:14;;;;;;;8.43;7.93;;;25.10;59.30;;;;;;20667;6869;73911;31
2022/07/21 04:25:40;;;;;;;9.45;8.77;;;25.00;59.50;;;;;;20494;6869;279023;31
2022/07/21 04:30:57;;;;;;;8.03;7.63;;;25.40;58.30;;;;;;18861;7104;113937;-89
2022/07/21 04:33:33;;;;;;;8.37;7.77;;;25.30;58.80;;;;;;20266;6798;278235;-88
2022/07/21 04:36:11;;;;;;;8.10;7.70;;;25.70;57.80;;;;;;20667;6756;306300;-87
2022/07/21 04:38:48;;;;;;;8.50;8.00;;;26.10;55.80;;;;;;20853;6798;117797;-85
2022/07/21 04:41:22;;;;;;;8.23;7.63;;;26.10;56.20;;;;;;20952;6731;117116;-85
2022/07/21 04:44:00;;;;;;;8.83;8.20;;;25.90;56.70;;;;;;20709;6727;307492;-86
2022/07/21 04:46:34;;;;;;;8.77;8.18;;;26.10;55.40;;;;;;20719;6731;276668;-86
2022/07/21 04:49:11;;;;;;;8.75;8.15;;;26.50;54.50;;;;;;20791;6731;308341;-87
2022/07/21 04:51:46;;;;;;;8.32;7.82;;;26.80;53.80;;;;;;20788;6731;335342;-88
2022/07/21 04:54:23;;;;;;;8.13;7.60;;;27.00;53.30;;;;;;20904;6772;117695;-86
2022/07/21 04:57:02;;;;;;;8.57;7.97;;;26.80;53.60;;;;;;20781;6731;306064;-86
2022/07/21 04:59:36;;;;;;;7.90;7.40;;;26.80;53.60;;;;;;20957;6731;120511;-86
2022/07/21 05:02:13;;;;;;;8.93;8.23;;;26.40;55.20;;;;;;20997;6731;118788;-88
2022/07/21 05:04:48;;;;;;;8.60;8.10;;;26.40;55.20;;;;;;20570;6731;281168;-86
2022/07/21 05:07:24;;;;;;;8.67;8.17;;;26.60;54.10;;;;;;20690;6749;276397;-86
2022/07/21 05:09:59;;;;;;;7.83;7.43;;;26.90;53.30;;;;;;20895;6761;118008;-88
2022/07/21 05:12:35;;;;;;;8.80;8.17;;;26.80;53.90;;;;;;20896;6754;118886;-86
2022/07/21 05:15:12;;;;;;;8.70;8.07;;;26.60;54.60;;;;;;20808;6754;118323;-86
2022/07/21 05:17:48;;;;;;;8.73;8.03;;;26.30;55.20;;;;;;20729;6739;306256;-87
2022/07/21 05:20:24;;;;;;;8.57;8.07;;;26.50;54.00;;;;;;20754;6739;337762;-87
2022/07/21 05:23:01;;;;;;;8.43;7.80;;;26.90;53.20;;;;;;20943;6739;117998;-87
2022/07/21 05:25:45;;;;;;;;;;;;;;;;;;;;;
2022/07/21 05:28:11;;;;;;;8.83;8.13;;;26.50;54.40;;;;;;20876;6754;116698;-88
2022/07/21 05:30:48;;;;;;;9.30;8.70;;;26.30;55.00;;;;;;20657;6764;292819;-88
2022/07/21 05:33:23;;;;;;;8.90;8.30;;;26.50;53.90;;;;;;20572;6761;339180;-88
2022/07/21 05:35:59;;;;;;;9.60;8.80;;;26.90;53.20;;;;;;20646;6764;307356;-86
2022/07/21 05:38:34;;;;;;;8.30;7.80;;;27.20;52.70;;;;;;20648;6746;307807;-86
2022/07/21 05:41:10;;;;;;;8.52;8.13;;;27.30;52.30;;;;;;20716;6739;281198;-87
2022/07/21 05:43:45;;;;;;;9.02;8.23;;;27.60;52.20;;;;;;20638;6739;309264;-88
2022/07/21 05:46:21;;;;;;;8.33;7.73;;;27.70;51.80;;;;;;20763;6771;117972;-88
2022/07/21 05:48:59;;;;;;;10.57;9.80;;;27.40;51.50;;;;;;20596;6771;311421;-88
2022/07/21 05:51:34;;;;;;;10.20;9.60;;;27.40;51.90;;;;;;20782;6753;117576;-91
2022/07/21 05:54:10;;;;;;;11.30;10.60;;;27.20;52.70;;;;;;20843;6751;118761;-88
2022/07/21 05:56:46;;;;;;;9.88;9.05;;;26.70;53.60;;;;;;20699;6751;336150;-88
2022/07/21 05:59:21;;;;;;;12.25;11.45;;;26.70;53.20;;;;;;20730;6742;308828;-88
2022/07/21 06:01:57;;;;;;;11.60;10.70;;;26.90;53.50;;;;;;20932;6742;118000;-88
2022/07/21 06:04:33;;;;;;;12.00;11.30;;;26.60;54.10;;;;;;20560;6742;279637;-88
2022/07/21 06:07:08;;;;;;;11.63;10.67;;;26.60;54.40;;;;;;20915;6747;117650;-88
2022/07/21 06:09:44;;;;;;;11.43;10.63;;;26.40;55.20;;;;;;20897;6753;117403;-88
2022/07/21 06:12:19;;;;;;;13.00;12.17;;;26.00;56.10;;;;;;20695;6753;277806;-88
2022/07/21 06:14:55;;;;;;;12.50;11.60;;;26.10;55.80;;;;;;20616;6743;308513;-87
2022/07/21 06:17:34;;;;;;;11.60;10.90;;;26.40;55.30;;;;;;20827;6737;304672;-92
2022/07/21 06:20:06;;;;;;;10.63;9.93;;;26.70;54.60;;;;;;20970;6737;117489;-88
2022/07/21 06:22:42;;;;;;;11.13;10.33;;;26.60;55.10;;;;;;20786;6722;278573;-88
2022/07/21 06:25:17;;;;;;;10.68;9.98;;;26.70;54.30;;;;;;20626;6722;336238;-88
2022/07/21 06:27:54;;;;;;;11.12;9.80;;;27.00;53.90;;;;;;20747;6743;335126;-88
2022/07/21 06:30:30;;;;;;;10.90;10.10;;;28.00;52.70;;;;;;20729;6743;276730;-88
2022/07/21 06:33:06;;;;;;;9.87;9.17;;;27.90;52.60;;;;;;20751;6754;305587;-88
2022/07/21 06:35:41;;;;;;;9.70;9.00;;;28.50;50.60;;;;;;20728;6740;303284;-88
2022/07/21 06:38:17;;;;;;;9.55;8.88;;;29.00;49.30;;;;;;20744;6753;306594;-89
2022/07/21 06:40:53;;;;;;;9.52;8.95;;;29.60;48.50;;;;;;20621;6753;279273;-88
2022/07/21 06:43:28;;;;;;;9.43;8.82;;;30.10;47.90;;;;;;20663;6740;337766;-89
2022/07/21 06:46:04;;;;;;;9.60;8.90;;;30.30;46.30;;;;;;20666;6748;279862;-86
2022/07/21 06:48:39;;;;;;;9.13;8.53;;;30.40;45.90;;;;;;20880;6745;120224;-88
2022/07/21 06:51:17;;;;;;;9.27;8.53;;;29.80;46.70;;;;;;20926;6742;118522;-88
2022/07/21 06:53:53;;;;;;;8.90;8.33;;;29.40;48.70;;;;;;20871;6750;116526;-88
2022/07/21 06:56:28;;;;;;;9.70;9.00;;;29.30;49.80;;;;;;20935;6725;149592;-87
2022/07/21 06:59:04;;;;;;;9.00;8.30;;;29.40;50.00;;;;;;20740;6725;307277;-88
2022/07/21 07:01:40;;;;;;;8.10;7.50;;;29.80;47.60;;;;;;20904;6728;117613;-88
2022/07/21 07:04:16;;;;;;;9.73;9.17;;;29.80;47.80;;;;;;20802;6736;117129;-88
2022/07/21 07:06:55;;;;;;;9.30;8.67;;;29.90;47.70;;;;;;20630;6739;311257;-88
2022/07/21 07:09:28;;;;;;;9.43;8.73;;;29.80;46.90;;;;;;20640;6754;279733;-87
2022/07/21 07:12:08;;;;;;;9.70;9.00;;;30.80;45.50;;;;;;20685;6734;279027;-88
2022/07/21 07:14:40;;;;;;;9.87;9.07;;;30.70;45.40;;;;;;20679;6749;146647;-87
2022/07/21 07:17:21;;;;;;;8.87;8.37;;;30.50;46.70;;;;;;20869;6751;119171;-88
2022/07/21 07:19:56;;;;;;;9.33;8.43;;;30.20;47.90;;;;;;20882;6748;117562;-88
2022/07/21 07:22:32;;;;;;;8.97;8.37;;;29.90;48.70;;;;;;20804;6800;117722;-88
2022/07/21 07:25:08;;;;;;;8.83;8.13;;;29.80;48.60;;;;;;20728;6741;117571;-88
2022/07/21 07:27:46;;;;;;;9.47;8.87;;;29.60;48.70;;;;;;20673;6756;310486;-87
2022/07/21 07:30:22;;;;;;;8.47;7.97;;;29.90;47.70;;;;;;20827;6752;117254;-90
2022/07/21 07:32:58;;;;;;;9.33;8.63;;;30.00;48.00;;;;;;20679;6824;312877;-90
2022/07/21 07:35:44;;;;;;;;;;;;;;;;;;;;;
2022/07/21 07:38:15;;;;;;;8.07;7.50;;;30.30;47.00;;;;;;20711;6798;111703;-90
2022/07/21 07:40:49;;;;;;;8.40;8.00;;;30.20;47.30;;;;;;20840;6739;118927;-88
2022/07/21 07:43:28;;;;;;;7.53;7.00;;;30.10;47.60;;;;;;20859;6764;116997;-89
2022/07/21 07:46:14;;;;;;;;;;;;;;;;;;;;;
2022/07/21 07:48:50;;;;;;;;;;;;;;;;;;;;;
2022/07/21 07:51:25;;;;;;;;;;;;;;;;;;;;;
2022/07/21 07:53:50;;;;;;;7.27;6.63;;;30.60;44.50;;;;;;20909;6793;116244;-90
2022/07/21 07:56:26;;;;;;;8.20;7.60;;;30.40;45.30;;;;;;20559;6820;278355;-89
2022/07/21 07:59:01;;;;;;;7.60;7.10;;;30.70;43.80;;;;;;20855;6747;117783;-89
2022/07/21 08:01:37;;;;;;;7.30;6.87;;;30.70;44.80;;;;;;20623;6771;307192;-88
2022/07/21 08:04:15;;;;;;;7.97;7.47;;;31.00;43.10;;;;;;20554;6763;280130;-89
2022/07/21 08:06:48;;;;;;;7.90;7.40;;;31.40;41.80;;;;;;20687;6752;427005;-87
2022/07/21 08:09:24;;;;;;;7.43;6.87;;;31.80;40.80;;;;;;20882;6763;118464;-87
2022/07/21 08:11:59;;;;;;;7.67;7.20;;;31.60;42.10;;;;;;20845;6766;117220;-87
2022/07/21 08:14:35;;;;;;;7.47;6.83;;;31.40;42.80;;;;;;20674;6781;117734;-88
2022/07/21 08:17:10;;;;;;;6.57;6.17;;;31.20;42.90;;;;;;20776;6779;117389;-89
2022/07/21 08:19:55;;;;;;;7.70;7.10;;;31.10;43.40;;;;;;20799;6779;120882;-87
2022/07/21 08:22:21;;;;;;;7.43;6.93;;;31.00;42.60;;;;;;20843;6772;118135;-89
2022/07/21 08:24:57;;;;;;;7.60;7.10;;;30.70;42.70;;;;;;20538;6751;308768;-89
2022/07/21 08:27:32;;;;;;;7.60;7.00;;;30.80;40.80;;;;;;20690;6742;309510;-88
2022/07/21 08:30:09;;;;;;;7.73;7.03;;;31.00;41.00;;;;;;20713;6737;276021;-88
2022/07/21 08:32:45;;;;;;;7.90;7.20;;;31.00;41.00;;;;;;20888;6742;118160;-87
2022/07/21 08:35:20;;;;;;;6.83;6.53;;;30.80;41.80;;;;;;20733;6797;117262;-87
2022/07/21 08:37:59;;;;;;;7.70;7.20;;;30.70;42.50;;;;;;20692;6742;277406;-87
2022/07/21 08:40:34;;;;;;;7.23;6.73;;;30.90;40.40;;;;;;20907;6737;118152;-88
2022/07/21 08:43:13;;;;;;;7.67;7.17;;;31.00;39.80;;;;;;20669;6742;278070;-88
2022/07/21 08:45:48;;;;;;;7.43;7.03;;;31.00;39.80;;;;;;20893;6742;118509;-89
2022/07/21 08:48:23;;;;;;;7.27;6.70;;;30.80;41.00;;;;;;20901;6742;117592;-90
2022/07/21 08:50:59;;;;;;;7.20;6.80;;;30.20;42.00;;;;;;20891;6761;116461;-89
2022/07/21 08:53:34;;;;;;;7.33;6.77;;;29.90;43.00;;;;;;20565;6831;117156;-89
2022/07/21 08:56:10;;;;;;;6.70;6.30;;;29.80;43.50;;;;;;20912;6746;116072;-90
2022/07/21 08:58:54;;;;;;;6.87;6.47;;;29.80;43.20;;;;;;20636;6750;307931;-89
2022/07/21 09:01:26;;;;;;;7.27;6.77;;;30.70;41.10;;;;;;20702;6742;305272;-89
2022/07/21 09:04:28;;;;;;;7.00;6.53;;;30.60;41.00;;;;;;20813;6745;119184;-90
2022/07/21 09:07:03;;;;;;;6.87;6.47;;;30.60;41.50;;;;;;20706;6738;277083;-88
2022/07/21 09:09:39;;;;;;;6.50;6.10;;;30.90;40.10;;;;;;20883;6753;117462;-89
2022/07/21 09:12:14;;;;;;;7.30;6.60;;;31.00;40.90;;;;;;20884;6749;116047;-89
2022/07/21 09:15:00;;;;;;;6.67;6.27;;;30.80;41.00;;;;;;20729;6751;117557;-90
2022/07/21 09:17:25;;;;;;;6.80;6.40;;;30.60;41.50;;;;;;20943;6728;117382;-88
2022/07/21 09:20:01;;;;;;;7.37;6.87;;;30.40;42.00;;;;;;20925;6737;116855;-89
2022/07/21 09:22:38;;;;;;;7.70;7.13;;;30.10;42.70;;;;;;20719;6776;305962;-87
2022/07/21 09:25:15;;;;;;;7.22;6.82;;;30.60;39.30;;;;;;20586;6720;307563;-87
2022/07/21 09:27:50;;;;;;;7.27;6.67;;;30.60;39.30;;;;;;20941;6776;117838;-87
2022/07/21 09:30:26;;;;;;;6.43;6.13;;;30.40;40.40;;;;;;20953;6776;117473;-90
2022/07/21 09:33:01;;;;;;;7.00;6.60;;;30.20;41.90;;;;;;20959;6720;117068;-92
2022/07/21 09:35:37;;;;;;;7.23;6.83;;;30.10;42.50;;;;;;20738;6776;278680;-89
2022/07/21 09:38:14;;;;;;;7.13;6.63;;;30.80;39.70;;;;;;20762;6720;294947;-91
2022/07/21 09:40:51;;;;;;;6.73;6.23;;;30.80;39.70;;;;;;20958;6720;116867;-88
2022/07/21 09:43:28;;;;;;;7.28;6.78;;;30.80;40.70;;;;;;20715;6720;336748;-89
2022/07/21 09:46:04;;;;;;;6.83;6.43;;;30.80;38.20;;;;;;20982;6720;116948;-88
2022/07/21 09:48:40;;;;;;;7.37;6.87;;;30.20;40.60;;;;;;20974;6720;117084;-86
2022/07/21 09:51:26;;;;;;;6.93;6.37;;;30.20;40.60;;;;;;20987;6720;116623;-90
2022/07/21 09:54:09;;;;;;;6.83;6.43;;;30.10;41.50;;;;;;20680;6720;308655;-88
2022/07/21 09:56:45;;;;;;;6.73;6.33;;;30.60;40.30;;;;;;20787;6707;305514;-89
2022/07/21 09:59:20;;;;;;;6.33;5.93;;;31.20;39.60;;;;;;20708;6737;309329;-88
2022/07/21 10:01:56;;;;;;;6.60;6.20;;;32.00;37.60;;;;;;20739;6728;304711;-88
2022/07/21 10:04:32;;;;;;;5.60;5.30;;;32.00;37.50;;;;;;20807;6736;117811;-86
2022/07/21 10:07:07;;;;;;;5.93;5.47;;;32.00;38.30;;;;;;20727;6727;279361;-86
2022/07/21 10:09:43;;;;;;;5.27;4.97;;;32.20;34.40;;;;;;20746;6721;307948;-86
2022/07/21 10:12:19;;;;;;;5.67;5.30;;;32.80;34.00;;;;;;20750;6771;276563;-86
2022/07/21 10:14:55;;;;;;;5.83;5.53;;;32.70;33.90;;;;;;20768;6722;121439;-86
2022/07/21 10:17:30;;;;;;;6.00;5.50;;;32.60;35.50;;;;;;20967;6721;117411;-86
2022/07/21 10:20:13;;;;;;;6.10;5.70;;;32.40;36.40;;;;;;20997;6717;117014;-90
2022/07/21 10:23:14;;;;;;;6.67;6.27;;;32.10;36.70;;;;;;20971;6719;117176;-84
2022/07/21 10:25:50;;;;;;;5.67;5.37;;;31.80;37.40;;;;;;20752;6722;306120;-87
2022/07/21 10:28:27;;;;;;;5.33;5.10;;;32.00;35.30;;;;;;20947;6729;117447;-88
2022/07/21 10:31:11;;;;;;;5.90;5.50;;;31.80;36.60;;;;;;20781;6712;276505;-89
2022/07/21 10:33:50;;;;;;;5.67;5.37;;;32.00;34.80;;;;;;20678;6724;278005;-86
2022/07/21 10:36:28;;;;;;;5.23;4.93;;;32.30;34.60;;;;;;20974;6720;116956;-86
2022/07/21 10:39:12;;;;;;;5.53;5.23;;;32.20;35.90;;;;;;20747;6724;276802;-87
2022/07/21 10:41:46;;;;;;;5.10;4.80;;;32.40;34.80;;;;;;20915;6737;117056;-86
2022/07/21 10:44:28;;;;;;;5.87;5.50;;;32.40;35.50;;;;;;20597;6737;280292;-86
2022/07/21 10:47:13;;;;;;;5.60;5.20;;;32.40;33.90;;;;;;21011;6722;116283;-86
2022/07/21 10:50:04;;;;;;;5.83;5.33;;;32.20;36.00;;;;;;20998;6722;116605;-86
2022/07/21 10:52:39;;;;;;;5.53;5.03;;;32.10;36.40;;;;;;20844;6716;275428;-86
2022/07/21 10:55:23;;;;;;;5.03;4.63;;;32.30;34.70;;;;;;20839;6734;66484;-87
2022/07/21 10:58:16;;;;;;;5.43;5.03;;;32.40;35.50;;;;;;20868;6713;275497;-86
2022/07/21 11:01:01;;;;;;;4.83;4.53;;;32.60;33.00;;;;;;21088;6707;116396;-86
2022/07/21 11:03:38;;;;;;;5.40;5.10;;;32.50;33.70;;;;;;21023;6713;119451;-86
2022/07/21 11:06:15;;;;;;;5.17;4.77;;;32.30;35.00;;;;;;21066;6723;66307;-85
2022/07/21 11:08:54;;;;;;;5.20;4.90;;;32.10;35.50;;;;;;20956;6722;116891;-86
2022/07/21 11:11:33;;;;;;;5.30;5.00;;;31.90;35.80;;;;;;20740;6728;291186;-87
2022/07/21 11:14:11;;;;;;;5.70;5.20;;;32.10;33.50;;;;;;20643;6722;310113;-85
2022/07/21 11:16:54;;;;;;;5.30;4.90;;;32.50;34.30;;;;;;20947;6723;121305;-85
2022/07/21 11:19:38;;;;;;;5.50;5.18;;;32.60;34.90;;;;;;20757;6719;305138;-85
2022/07/21 11:22:17;;;;;;;5.43;5.03;;;32.80;33.10;;;;;;20927;6734;116906;-84
2022/07/21 11:24:56;;;;;;;5.20;4.80;;;32.80;34.20;;;;;;20776;6722;117261;-85
2022/07/21 11:27:32;;;;;;;5.10;4.70;;;32.60;34.90;;;;;;20951;6731;117359;-86
2022/07/21 11:30:09;;;;;;;5.30;5.00;;;32.50;35.00;;;;;;20717;6733;311328;-87
2022/07/21 11:32:47;;;;;;;4.70;4.50;;;32.70;33.30;;;;;;20915;6731;119087;-86
2022/07/21 11:35:24;;;;;;;5.03;4.73;;;32.80;35.30;;;;;;20778;6787;117807;-85
2022/07/21 11:38:01;;;;;;;5.43;5.07;;;32.80;35.20;;;;;;20949;6731;67078;-87
2022/07/21 11:40:36;;;;;;;5.13;4.63;;;32.80;35.30;;;;;;20964;6715;117202;-85
2022/07/21 11:43:12;;;;;;;5.17;4.87;;;32.60;35.10;;;;;;20939;6723;118207;-87
2022/07/21 11:45:51;;;;;;;5.30;5.00;;;32.60;34.10;;;;;;20760;6719;277484;-85
2022/07/21 11:48:30;;;;;;;5.10;4.80;;;32.50;34.50;;;;;;20766;6719;331358;-85
2022/07/21 11:51:05;;;;;;;5.00;4.60;;;33.00;33.60;;;;;;20962;6719;116963;-86
2022/07/21 11:53:44;;;;;;;5.27;4.87;;;33.20;34.70;;;;;;20695;6719;307710;-87
2022/07/21 11:56:20;;;;;;;5.13;4.83;;;33.30;32.30;;;;;;20979;6719;120420;-86
2022/07/21 11:59:09;;;;;;;5.43;5.03;;;33.00;34.10;;;;;;20948;6719;122220;-85
2022/07/21 12:02:02;;;;;;;5.40;5.00;;;32.70;34.20;;;;;;20966;6719;120927;-86
2022/07/21 12:04:41;;;;;;;5.10;4.90;;;32.70;34.10;;;;;;20503;6779;121926;-84
2022/07/21 12:07:29;;;;;;;5.10;4.80;;;32.40;35.10;;;;;;20755;6719;305890;-83
2022/07/21 12:10:08;;;;;;;4.67;4.37;;;32.40;32.80;;;;;;20983;6719;117369;-82
2022/07/21 12:12:43;;;;;;;4.57;4.33;;;32.30;34.40;;;;;;20964;6719;118127;-82
2022/07/21 12:15:23;;;;;;;4.80;4.50;;;31.90;34.90;;;;;;20809;6720;116804;-83
2022/07/21 12:17:58;;;;;;;4.93;4.57;;;31.60;35.60;;;;;;20992;6719;115919;-83
2022/07/21 12:20:33;;;;;;;4.60;4.30;;;31.60;36.30;;;;;;20741;6719;306187;-86
2022/07/21 12:23:26;;;;;;;4.73;4.10;;;32.20;34.30;;;;;;20954;6719;119906;-86
2022/07/21 12:26:03;;;;;;;4.23;4.00;;;32.10;34.10;;;;;;20980;6719;116892;-85
2022/07/21 12:28:48;;;;;;;4.20;3.90;;;32.10;34.70;;;;;;20701;6730;306863;-85
2022/07/21 12:31:23;;;;;;;4.33;4.13;;;32.30;32.10;;;;;;20929;6731;117618;-86
2022/07/21 12:34:00;;;;;;;4.17;3.93;;;32.30;33.00;;;;;;20850;6730;117755;-85
2022/07/21 12:36:36;;;;;;;4.30;4.00;;;32.20;33.60;;;;;;20742;6716;306367;-83
2022/07/21 12:39:55;;;;;;;4.10;3.90;;;32.40;32.40;;;;;;20998;6716;116888;-84
2022/07/21 12:41:50;;;;;;;4.20;4.00;;;32.50;32.90;;;;;;20970;6772;117068;-84
2022/07/21 12:44:27;;;;;;;4.17;3.87;;;32.40;33.30;;;;;;20936;6716;116924;-84
2022/07/21 12:47:16;;;;;;;3.70;3.50;;;32.20;34.00;;;;;;20868;6753;119970;-84
2022/07/21 12:49:58;;;;;;;3.67;3.47;;;32.20;33.90;;;;;;20888;6795;116917;-84
2022/07/21 12:52:34;;;;;;;3.77;3.57;;;32.20;33.70;;;;;;20746;6736;275395;-84
2022/07/21 12:55:09;;;;;;;4.07;3.77;;;32.40;30.70;;;;;;20609;6737;277589;-84
2022/07/21 12:57:45;;;;;;;3.70;3.50;;;32.80;30.00;;;;;;20795;6714;277299;-86
2022/07/21 13:00:21;;;;;;;4.15;3.85;;;33.10;30.00;;;;;;20712;6736;278883;-86
2022/07/21 13:02:56;;;;;;;3.80;3.50;;;33.30;29.10;;;;;;20920;6729;116968;-85
2022/07/21 13:05:32;;;;;;;3.70;3.60;;;33.30;29.80;;;;;;20942;6729;117757;-85
2022/07/21 13:08:07;;;;;;;3.70;3.50;;;33.00;30.60;;;;;;20941;6729;117411;-88
2022/07/21 13:10:43;;;;;;;4.00;3.70;;;32.80;31.50;;;;;;20710;6729;304989;-85
2022/07/21 13:13:19;;;;;;;3.80;3.60;;;33.40;28.70;;;;;;20708;6729;280033;-83
2022/07/21 13:15:55;;;;;;;3.92;3.72;;;33.40;28.70;;;;;;20720;6733;336010;-85
2022/07/21 13:18:30;;;;;;;3.97;3.67;;;33.70;29.90;;;;;;20834;6759;117242;-86
2022/07/21 13:21:07;;;;;;;3.70;3.50;;;33.20;30.30;;;;;;20850;6759;117072;-85